ADDS METAR Data INFO
IDs: Format: Raw Decoded Include TAF

Data at: 1511 UTC 23 Oct 2017

PHNL 231453Z 00000KT 10SM FEW020 SCT034 OVC090 24/22 A2992 RMK AO2 SLP131 60008 T02390222 55013
PHNL 231353Z 00000KT 10SM FEW024 BKN037 OVC060 23/22 A2992 RMK AO2 RAB1254E47 SLP130 P0008 T02330217
PHNL 231303Z 00000KT 8SM -RA SCT028 SCT036 OVC060 24/21 A2993 RMK AO2 RAB1254 CIG 037 RWY04R P0000 T02440206
PHNL 231253Z 35003KT 10SM BKN028 BKN070 24/21 A2994 RMK AO2 SLP137 T02440206
PHNL 231233Z 35003KT 10SM BKN028 OVC070 24/20 A2994 RMK AO2 T02440200
PHNL 231153Z 00000KT 10SM FEW038 SCT065 24/20 A2996 RMK AO2 SLP143 T02390200 10261 20239 56020
PHNL 231053Z 01004KT 10SM CLR 24/19 A2997 RMK AO2 SLP147 T02390194
PHNL 230953Z 01004KT 10SM FEW036 FEW042 24/19 A3000 RMK AO2 SLP157 T02390194 402890217
PHNL 230853Z 36003KT 10SM FEW055 24/20 A3002 RMK AO2 SLP163 T02440200 50005
PHNL 230753Z 03003KT 10SM CLR 25/20 A3002 RMK AO2 SLP165 T02500200
PHNL 230653Z 00000KT 10SM FEW040 25/21 A3001 RMK AO2 SLP161 T02500206
PHNL 230553Z 15003KT 10SM CLR 26/21 A3000 RMK AO2 SLP158 T02560211 10289 20256 53017
PHNL 230453Z 20003KT 10SM FEW250 26/21 A2997 RMK AO2 SLP150 T02610211
PHNL 230353Z 19003KT 10SM FEW040 SCT250 27/21 A2995 RMK AO2 SLP143 T02670206
PHNL 230253Z 21004KT 10SM FEW040 FEW140 SCT250 27/21 A2995 RMK AO2 SLP141 T02720206 56013
PHNL 230153Z 18006KT 10SM FEW028 FEW040 SCT250 28/21 A2996 RMK AO2 SLP145 T02780206
PHNL 230053Z 18007KT 10SM FEW028 FEW039 SCT140 BKN200 28/21 A2997 RMK AO2 SLP148 T02780206
PHNL 222353Z 17008KT 10SM FEW039 FEW046 SCT140 BKN200 28/20 A2999 RMK AO2 SLP153 T02830200 10289 20250 58020
PHNL 222253Z 17009KT 10SM FEW038 FEW048 SCT140 BKN200 28/20 A3000 RMK AO2 SLP159 T02830200
PHNL 222153Z 18009KT 10SM FEW026 FEW048 SCT200 28/20 A3003 RMK AO2 SLP168 T02830200
PHNL 222053Z 16008KT 10SM FEW026 FEW049 SCT200 28/20 A3004 RMK AO2 SLP173 T02830200 58001
PHNL 221953Z 16006KT 10SM FEW027 FEW048 FEW055 SCT130 28/21 A3007 RMK AO2 SLP181 T02780206
PHNL 221853Z 00000KT 10SM FEW025 FEW042 27/21 A3006 RMK AO2 SLP179 T02720206
PHNL 221753Z 34003KT 10SM FEW039 25/21 A3005 RMK AO2 SLP175 T02500206 10250 20217 53016
PHNL 221653Z 35004KT 10SM SCT027 BKN046 BKN070 23/20 A3003 RMK AO2 SLP168 T02280200
PHNL 221636Z VRB04KT 10SM BKN027 23/19 A3002 RMK AO2 T02280194
PHNL 221553Z 34003KT 10SM FEW027 22/19 A3000 RMK AO2 SLP160 T02170189
PHNL 221453Z 00000KT 10SM FEW022 22/19 A3000 RMK AO2 SLP158 T02220194 55003
PHNL 221353Z 35004KT 10SM FEW024 23/19 A3000 RMK AO2 SLP157 T02280194
PHNL 221253Z 33003KT 10SM FEW025 24/19 A3000 RMK AO2 SLP157 T02390194
PHNL 221153Z 08005KT 10SM FEW026 24/19 A3001 RMK AO2 SLP161 T02440194 10261 20244 58009
PHNL 221053Z VRB04KT 10SM FEW026 26/20 A3002 RMK AO2 SLP165 T02560200
PHNL 220953Z 06005KT 10SM FEW026 SCT048 26/20 A3003 RMK AO2 SLP167 T02560200 403060239
PHNL 220853Z 07008KT 10SM FEW020 FEW050 26/19 A3003 RMK AO2 SLP170 T02560194 50005
PHNL 220753Z 07009KT 10SM FEW020 FEW040 26/19 A3004 RMK AO2 SLP171 T02610189
PHNL 220653Z 07011KT 10SM FEW022 FEW035 26/19 A3003 RMK AO2 SLP168 T02610189
PHNL 220553Z 03004KT 10SM FEW022 FEW035 26/19 A3002 RMK AO2 SLP165 T02610194 10306 20256 51019
PHNL 220453Z 04007KT 10SM FEW022 FEW035 SCT050 26/19 A3000 RMK AO2 SLP159 T02610189
PHNL 220353Z 03011KT 10SM FEW022 FEW035 SCT050 27/19 A2999 RMK AO2 SLP153 T02670189